sensor_id;sensor_type;location;lat;lon;timestamp;pressure;altitude;pressure_sealevel;temperature;humidity
75538;BME280;64121;48.666;8.114;2023-05-07T00:01:21;99845.63;;;12.13;92.91
75538;BME280;64121;48.666;8.114;2023-05-07T00:03:46;99851.19;;;12.13;93.04
75538;BME280;64121;48.666;8.114;2023-05-07T00:06:11;99854.94;;;12.21;92.36
75538;BME280;64121;48.666;8.114;2023-05-07T00:08:38;99856.19;;;12.23;93.05
75538;BME280;64121;48.666;8.114;2023-05-07T00:11:03;99856.13;;;12.20;93.31
75538;BME280;64121;48.666;8.114;2023-05-07T00:13:29;99852.44;;;12.16;93.10
75538;BME280;64121;48.666;8.114;2023-05-07T00:15:54;99848.84;;;12.15;93.14
75538;BME280;64121;48.666;8.114;2023-05-07T00:18:19;99850.03;;;12.14;93.72
75538;BME280;64121;48.666;8.114;2023-05-07T00:20:45;99852.53;;;12.03;94.21
75538;BME280;64121;48.666;8.114;2023-05-07T00:23:10;99853.53;;;12.11;93.61
75538;BME280;64121;48.666;8.114;2023-05-07T00:25:37;99850.81;;;12.15;93.60
75538;BME280;64121;48.666;8.114;2023-05-07T00:28:02;99851.34;;;12.20;93.66
75538;BME280;64121;48.666;8.114;2023-05-07T00:30:28;99850.19;;;12.21;93.22
75538;BME280;64121;48.666;8.114;2023-05-07T00:32:53;99850.19;;;12.21;93.91
75538;BME280;64121;48.666;8.114;2023-05-07T00:35:18;99849.56;;;12.12;94.13
75538;BME280;64121;48.666;8.114;2023-05-07T00:37:44;99854.16;;;12.04;93.79
75538;BME280;64121;48.666;8.114;2023-05-07T00:40:09;99845.72;;;12.01;94.75
75538;BME280;64121;48.666;8.114;2023-05-07T00:42:36;99850.50;;;11.85;95.90
75538;BME280;64121;48.666;8.114;2023-05-07T00:45:02;99853.34;;;11.72;95.92
75538;BME280;64121;48.666;8.114;2023-05-07T00:47:27;99857.25;;;11.83;95.41
75538;BME280;64121;48.666;8.114;2023-05-07T00:49:53;99853.84;;;11.90;94.29
75538;BME280;64121;48.666;8.114;2023-05-07T00:52:19;99850.75;;;11.95;93.79
75538;BME280;64121;48.666;8.114;2023-05-07T00:54:47;99844.53;;;12.02;93.96
75538;BME280;64121;48.666;8.114;2023-05-07T00:57:12;99851.72;;;12.03;93.36
75538;BME280;64121;48.666;8.114;2023-05-07T00:59:39;99845.88;;;12.08;93.39
75538;BME280;64121;48.666;8.114;2023-05-07T01:02:04;99844.25;;;12.07;93.04
75538;BME280;64121;48.666;8.114;2023-05-07T01:04:29;99841.38;;;12.03;93.38
75538;BME280;64121;48.666;8.114;2023-05-07T01:06:56;99843.28;;;11.83;94.51
75538;BME280;64121;48.666;8.114;2023-05-07T01:09:23;99841.41;;;11.72;95.25
75538;BME280;64121;48.666;8.114;2023-05-07T01:11:49;99839.41;;;11.57;96.36
75538;BME280;64121;48.666;8.114;2023-05-07T01:14:15;99837.06;;;11.43;97.19
75538;BME280;64121;48.666;8.114;2023-05-07T01:16:42;99834.63;;;11.41;97.28
75538;BME280;64121;48.666;8.114;2023-05-07T01:19:08;99836.53;;;11.53;96.99
75538;BME280;64121;48.666;8.114;2023-05-07T01:21:33;99836.53;;;11.53;96.21
75538;BME280;64121;48.666;8.114;2023-05-07T01:24:01;99838.84;;;11.51;95.82
75538;BME280;64121;48.666;8.114;2023-05-07T01:26:27;99836.72;;;11.60;95.97
75538;BME280;64121;48.666;8.114;2023-05-07T01:28:52;99830.88;;;11.65;94.88
75538;BME280;64121;48.666;8.114;2023-05-07T01:31:17;99834.09;;;11.67;94.97
75538;BME280;64121;48.666;8.114;2023-05-07T01:33:43;99840.22;;;11.57;96.19
75538;BME280;64121;48.666;8.114;2023-05-07T01:36:11;99839.66;;;11.51;96.22
75538;BME280;64121;48.666;8.114;2023-05-07T01:38:37;99835.47;;;11.58;95.41
75538;BME280;64121;48.666;8.114;2023-05-07T01:41:06;99835.63;;;11.65;95.38
75538;BME280;64121;48.666;8.114;2023-05-07T01:43:31;99841.72;;;11.70;96.04
75538;BME280;64121;48.666;8.114;2023-05-07T01:45:57;99835.19;;;11.63;95.42
75538;BME280;64121;48.666;8.114;2023-05-07T01:48:24;99830.06;;;11.65;94.75
75538;BME280;64121;48.666;8.114;2023-05-07T01:50:50;99840.75;;;11.63;95.05
75538;BME280;64121;48.666;8.114;2023-05-07T01:53:16;99834.81;;;11.64;95.46
75538;BME280;64121;48.666;8.114;2023-05-07T01:55:41;99830.06;;;11.65;94.39
75538;BME280;64121;48.666;8.114;2023-05-07T01:58:08;99827.63;;;11.63;95.62
75538;BME280;64121;48.666;8.114;2023-05-07T02:00:34;99832.13;;;11.52;96.92
75538;BME280;64121;48.666;8.114;2023-05-07T02:02:59;99836.06;;;11.51;96.20
75538;BME280;64121;48.666;8.114;2023-05-07T02:05:25;99837.88;;;11.59;94.73
75538;BME280;64121;48.666;8.114;2023-05-07T02:07:50;99833.13;;;11.60;94.80
75538;BME280;64121;48.666;8.114;2023-05-07T02:10:15;99835.25;;;11.50;95.84
75538;BME280;64121;48.666;8.114;2023-05-07T02:12:41;99835.44;;;11.42;96.38
75538;BME280;64121;48.666;8.114;2023-05-07T02:15:08;99831.84;;;11.41;95.76
75538;BME280;64121;48.666;8.114;2023-05-07T02:17:33;99827.97;;;11.46;95.50
75538;BME280;64121;48.666;8.114;2023-05-07T02:19:59;99832.47;;;11.50;95.12
75538;BME280;64121;48.666;8.114;2023-05-07T02:22:24;99834.38;;;11.46;95.24
75538;BME280;64121;48.666;8.114;2023-05-07T02:24:49;99829.22;;;11.33;95.85
75538;BME280;64121;48.666;8.114;2023-05-07T02:27:15;99833.81;;;11.25;95.19
75538;BME280;64121;48.666;8.114;2023-05-07T02:29:40;99836.78;;;11.16;96.42
75538;BME280;64121;48.666;8.114;2023-05-07T02:32:07;99838.09;;;11.07;97.21
75538;BME280;64121;48.666;8.114;2023-05-07T02:34:32;99833.59;;;11.02;97.76
75538;BME280;64121;48.666;8.114;2023-05-07T02:36:57;99828.38;;;11.01;96.54
75538;BME280;64121;48.666;8.114;2023-05-07T02:39:23;99834.31;;;10.99;96.68
75538;BME280;64121;48.666;8.114;2023-05-07T02:41:48;99837.69;;;10.92;96.97
75538;BME280;64121;48.666;8.114;2023-05-07T02:44:13;99836.38;;;11.02;96.26
75538;BME280;64121;48.666;8.114;2023-05-07T02:46:39;99840.69;;;11.00;96.12
75538;BME280;64121;48.666;8.114;2023-05-07T02:49:05;99838.78;;;11.04;95.43
75538;BME280;64121;48.666;8.114;2023-05-07T02:51:31;99834.03;;;11.04;95.72
75538;BME280;64121;48.666;8.114;2023-05-07T02:53:56;99834.22;;;11.11;94.46
75538;BME280;64121;48.666;8.114;2023-05-07T02:56:22;99848.16;;;11.11;95.15
75538;BME280;64121;48.666;8.114;2023-05-07T02:58:47;99838.88;;;11.07;95.41
75538;BME280;64121;48.666;8.114;2023-05-07T03:01:12;99849.31;;;11.10;94.96
75538;BME280;64121;48.666;8.114;2023-05-07T03:03:38;99846.53;;;11.10;95.37
75538;BME280;64121;48.666;8.114;2023-05-07T03:06:05;99841.75;;;11.11;96.05
75538;BME280;64121;48.666;8.114;2023-05-07T03:08:30;99834.94;;;11.08;96.08
75538;BME280;64121;48.666;8.114;2023-05-07T03:10:55;99837.53;;;11.01;95.85
75538;BME280;64121;48.666;8.114;2023-05-07T03:13:21;99830.72;;;10.99;95.93
75538;BME280;64121;48.666;8.114;2023-05-07T03:15:46;99831.00;;;10.81;96.74
75538;BME280;64121;48.666;8.114;2023-05-07T03:18:12;99832.63;;;10.82;96.16
75538;BME280;64121;48.666;8.114;2023-05-07T03:20:37;99828.59;;;10.80;96.11
75538;BME280;64121;48.666;8.114;2023-05-07T03:23:04;99822.91;;;10.76;95.91
75538;BME280;64121;48.666;8.114;2023-05-07T03:25:29;99821.03;;;10.80;96.03
75538;BME280;64121;48.666;8.114;2023-05-07T03:27:54;99820.78;;;10.85;96.68
75538;BME280;64121;48.666;8.114;2023-05-07T03:30:20;99826.91;;;10.91;96.63
75538;BME280;64121;48.666;8.114;2023-05-07T03:32:45;99821.69;;;10.89;96.13
75538;BME280;64121;48.666;8.114;2023-05-07T03:35:10;99818.72;;;10.82;95.15
75538;BME280;64121;48.666;8.114;2023-05-07T03:37:37;99811.88;;;10.80;95.27
75538;BME280;64121;48.666;8.114;2023-05-07T03:40:05;99824.28;;;10.82;95.51
75538;BME280;64121;48.666;8.114;2023-05-07T03:42:31;99822.69;;;10.69;96.21
75538;BME280;64121;48.666;8.114;2023-05-07T03:44:56;99832.59;;;10.54;97.96
75538;BME280;64121;48.666;8.114;2023-05-07T03:47:22;99829.63;;;10.47;98.09
75538;BME280;64121;48.666;8.114;2023-05-07T03:49:47;99829.25;;;10.49;98.26
75538;BME280;64121;48.666;8.114;2023-05-07T03:52:12;99827.53;;;10.44;97.51
75538;BME280;64121;48.666;8.114;2023-05-07T03:54:37;99835.53;;;10.46;96.84
75538;BME280;64121;48.666;8.114;2023-05-07T03:57:04;99829.25;;;10.49;96.80
75538;BME280;64121;48.666;8.114;2023-05-07T03:59:29;99840.69;;;10.59;96.43
75538;BME280;64121;48.666;8.114;2023-05-07T04:01:55;99847.19;;;10.64;96.41
75538;BME280;64121;48.666;8.114;2023-05-07T04:04:20;99848.19;;;10.71;96.28
75538;BME280;64121;48.666;8.114;2023-05-07T04:06:45;99851.25;;;10.66;95.47
75538;BME280;64121;48.666;8.114;2023-05-07T04:09:11;99851.69;;;10.68;95.97
75538;BME280;64121;48.666;8.114;2023-05-07T04:11:36;99852.75;;;10.64;95.42
75538;BME280;64121;48.666;8.114;2023-05-07T04:14:03;99851.94;;;10.63;95.13
75538;BME280;64121;48.666;8.114;2023-05-07T04:16:28;99859.22;;;10.68;94.78
75538;BME280;64121;48.666;8.114;2023-05-07T04:18:53;99865.50;;;10.65;95.21
75538;BME280;64121;48.666;8.114;2023-05-07T04:21:20;99861.00;;;10.60;95.67
75538;BME280;64121;48.666;8.114;2023-05-07T04:23:45;99861.84;;;10.48;96.61
75538;BME280;64121;48.666;8.114;2023-05-07T04:26:11;99852.56;;;10.44;97.51
75538;BME280;64121;48.666;8.114;2023-05-07T04:28:36;99858.72;;;10.38;98.47
75538;BME280;64121;48.666;8.114;2023-05-07T04:31:03;99862.09;;;10.43;97.80
75538;BME280;64121;48.666;8.114;2023-05-07T04:33:28;99857.19;;;10.52;97.11
75538;BME280;64121;48.666;8.114;2023-05-07T04:35:53;99857.88;;;10.61;96.37
75538;BME280;64121;48.666;8.114;2023-05-07T04:38:19;99859.78;;;10.73;96.60
75538;BME280;64121;48.666;8.114;2023-05-07T04:40:44;99857.69;;;10.82;95.82
75538;BME280;64121;48.666;8.114;2023-05-07T04:43:10;99859.41;;;10.87;95.45
75538;BME280;64121;48.666;8.114;2023-05-07T04:45:35;99859.59;;;10.94;95.46
75538;BME280;64121;48.666;8.114;2023-05-07T04:48:02;99864.22;;;11.02;95.28
75538;BME280;64121;48.666;8.114;2023-05-07T04:50:28;99874.47;;;11.14;95.12
75538;BME280;64121;48.666;8.114;2023-05-07T04:52:53;99880.69;;;11.23;96.22
75538;BME280;64121;48.666;8.114;2023-05-07T04:55:19;99887.84;;;11.36;94.04
75538;BME280;64121;48.666;8.114;2023-05-07T04:57:44;99886.31;;;11.39;93.79
75538;BME280;64121;48.666;8.114;2023-05-07T05:00:10;99894.31;;;11.40;93.52
75538;BME280;64121;48.666;8.114;2023-05-07T05:02:35;99897.09;;;11.40;95.22
75538;BME280;64121;48.666;8.114;2023-05-07T05:05:02;99890.00;;;11.43;95.98
75538;BME280;64121;48.666;8.114;2023-05-07T05:07:28;99888.28;;;11.38;96.31
75538;BME280;64121;48.666;8.114;2023-05-07T05:09:53;99888.06;;;11.31;97.44
75538;BME280;64121;48.666;8.114;2023-05-07T05:12:19;99894.00;;;11.30;98.41
75538;BME280;64121;48.666;8.114;2023-05-07T05:14:44;99910.22;;;11.40;97.02
75538;BME280;64121;48.666;8.114;2023-05-07T05:17:09;99932.94;;;11.42;97.22
75538;BME280;64121;48.666;8.114;2023-05-07T05:19:35;99930.00;;;11.50;96.70
75538;BME280;64121;48.666;8.114;2023-05-07T05:22:01;99919.69;;;11.67;96.53
75538;BME280;64121;48.666;8.114;2023-05-07T05:24:27;99903.97;;;11.74;97.39
75538;BME280;64121;48.666;8.114;2023-05-07T05:26:53;99910.66;;;12.01;96.74
75538;BME280;64121;48.666;8.114;2023-05-07T05:29:18;99911.69;;;12.44;95.34
75538;BME280;64121;48.666;8.114;2023-05-07T05:31:43;99903.41;;;13.02;93.66
75538;BME280;64121;48.666;8.114;2023-05-07T05:34:09;99898.13;;;13.36;92.06
75538;BME280;64121;48.666;8.114;2023-05-07T05:36:34;99892.13;;;13.56;90.91
75538;BME280;64121;48.666;8.114;2023-05-07T05:39:01;99892.69;;;13.66;90.50
75538;BME280;64121;48.666;8.114;2023-05-07T05:41:26;99899.63;;;13.52;90.09
75538;BME280;64121;48.666;8.114;2023-05-07T05:43:51;99899.19;;;13.50;90.04
75538;BME280;64121;48.666;8.114;2023-05-07T05:46:16;99903.06;;;13.42;90.81
75538;BME280;64121;48.666;8.114;2023-05-07T05:48:42;99910.41;;;13.31;91.23
75538;BME280;64121;48.666;8.114;2023-05-07T05:51:07;99921.22;;;13.32;91.75
75538;BME280;64121;48.666;8.114;2023-05-07T05:53:32;99916.59;;;13.21;92.68
75538;BME280;64121;48.666;8.114;2023-05-07T05:55:59;99917.25;;;13.33;93.07
75538;BME280;64121;48.666;8.114;2023-05-07T05:58:24;99915.19;;;13.73;91.15
75538;BME280;64121;48.666;8.114;2023-05-07T06:00:50;99910.72;;;13.91;90.50
75538;BME280;64121;48.666;8.114;2023-05-07T06:03:15;99919.00;;;14.07;89.30
75538;BME280;64121;48.666;8.114;2023-05-07T06:05:41;99918.81;;;14.19;88.53
75538;BME280;64121;48.666;8.114;2023-05-07T06:08:06;99914.97;;;14.31;87.75
75538;BME280;64121;48.666;8.114;2023-05-07T06:10:31;99928.72;;;14.39;87.96
75538;BME280;64121;48.666;8.114;2023-05-07T06:12:58;99936.94;;;14.29;88.92
75538;BME280;64121;48.666;8.114;2023-05-07T06:15:23;99947.03;;;14.33;89.71
75538;BME280;64121;48.666;8.114;2023-05-07T06:17:49;99949.31;;;14.28;90.17
75538;BME280;64121;48.666;8.114;2023-05-07T06:20:14;99943.72;;;14.28;89.99
75538;BME280;64121;48.666;8.114;2023-05-07T06:22:40;99940.97;;;14.31;89.02
75538;BME280;64121;48.666;8.114;2023-05-07T06:25:06;99951.81;;;14.33;88.32
75538;BME280;64121;48.666;8.114;2023-05-07T06:27:31;99946.75;;;14.42;88.23
75538;BME280;64121;48.666;8.114;2023-05-07T06:29:58;99944.16;;;14.52;88.47
75538;BME280;64121;48.666;8.114;2023-05-07T06:32:23;99944.44;;;14.70;88.79
75538;BME280;64121;48.666;8.114;2023-05-07T06:34:49;99952.28;;;14.88;87.94
75538;BME280;64121;48.666;8.114;2023-05-07T06:37:14;99947.94;;;14.90;87.91
75538;BME280;64121;48.666;8.114;2023-05-07T06:39:39;99952.84;;;15.00;86.13
75538;BME280;64121;48.666;8.114;2023-05-07T06:42:05;99956.06;;;15.02;87.50
75538;BME280;64121;48.666;8.114;2023-05-07T06:44:30;99955.50;;;15.20;85.85
75538;BME280;64121;48.666;8.114;2023-05-07T06:46:57;99953.06;;;15.48;85.00
75538;BME280;64121;48.666;8.114;2023-05-07T06:49:22;99956.13;;;15.66;84.44
75538;BME280;64121;48.666;8.114;2023-05-07T06:51:47;99945.19;;;15.98;84.08
75538;BME280;64121;48.666;8.114;2023-05-07T06:54:13;99946.97;;;16.17;83.60
75538;BME280;64121;48.666;8.114;2023-05-07T06:56:38;99949.75;;;16.61;79.68
75538;BME280;64121;48.666;8.114;2023-05-07T06:59:03;99950.97;;;16.60;79.06
75538;BME280;64121;48.666;8.114;2023-05-07T07:01:29;99949.78;;;16.17;81.09
75538;BME280;64121;48.666;8.114;2023-05-07T07:03:56;99949.13;;;16.34;80.34
75538;BME280;64121;48.666;8.114;2023-05-07T07:06:21;99951.09;;;15.82;82.36
75538;BME280;64121;48.666;8.114;2023-05-07T07:08:46;99951.63;;;15.98;82.30
75538;BME280;64121;48.666;8.114;2023-05-07T07:11:11;99964.75;;;15.87;82.63
75538;BME280;64121;48.666;8.114;2023-05-07T07:13:37;99963.91;;;15.83;82.80
75538;BME280;64121;48.666;8.114;2023-05-07T07:16:03;99970.28;;;15.80;82.24
75538;BME280;64121;48.666;8.114;2023-05-07T07:18:28;99971.81;;;15.74;81.99
75538;BME280;64121;48.666;8.114;2023-05-07T07:20:55;99972.22;;;16.13;81.19
75538;BME280;64121;48.666;8.114;2023-05-07T07:23:20;99966.53;;;16.50;80.84
75538;BME280;64121;48.666;8.114;2023-05-07T07:25:47;99971.81;;;17.14;78.55
75538;BME280;64121;48.666;8.114;2023-05-07T07:28:12;99973.47;;;17.29;75.58
75538;BME280;64121;48.666;8.114;2023-05-07T07:30:38;99976.38;;;17.47;75.55
75538;BME280;64121;48.666;8.114;2023-05-07T07:33:03;99981.66;;;17.63;73.71
75538;BME280;64121;48.666;8.114;2023-05-07T07:35:29;99980.19;;;17.94;73.47
75538;BME280;64121;48.666;8.114;2023-05-07T07:37:56;99972.13;;;17.85;73.00
75538;BME280;64121;48.666;8.114;2023-05-07T07:40:21;99966.06;;;17.72;74.24
75538;BME280;64121;48.666;8.114;2023-05-07T07:42:47;99974.13;;;17.95;72.63
75538;BME280;64121;48.666;8.114;2023-05-07T07:45:12;99971.78;;;18.22;71.63
75538;BME280;64121;48.666;8.114;2023-05-07T07:47:38;99970.97;;;18.61;70.72
75538;BME280;64121;48.666;8.114;2023-05-07T07:50:04;99961.31;;;18.48;71.73
75538;BME280;64121;48.666;8.114;2023-05-07T07:52:29;99967.75;;;18.59;69.87
75538;BME280;64121;48.666;8.114;2023-05-07T07:54:56;99964.13;;;18.83;70.11
75538;BME280;64121;48.666;8.114;2023-05-07T07:57:22;99967.22;;;19.28;68.26
75538;BME280;64121;48.666;8.114;2023-05-07T07:59:47;99963.97;;;19.40;67.00
75538;BME280;64121;48.666;8.114;2023-05-07T08:02:12;99971.38;;;19.96;65.43
75538;BME280;64121;48.666;8.114;2023-05-07T08:04:38;99967.03;;;19.81;66.21
75538;BME280;64121;48.666;8.114;2023-05-07T08:07:03;99967.69;;;20.03;64.07
75538;BME280;64121;48.666;8.114;2023-05-07T08:09:29;99960.41;;;20.09;64.68
75538;BME280;64121;48.666;8.114;2023-05-07T08:11:55;99961.59;;;20.64;63.40
75538;BME280;64121;48.666;8.114;2023-05-07T08:14:21;99971.44;;;20.48;63.07
75538;BME280;64121;48.666;8.114;2023-05-07T08:16:46;99966.22;;;20.88;61.33
75538;BME280;64121;48.666;8.114;2023-05-07T08:19:12;99960.63;;;19.74;64.58
75538;BME280;64121;48.666;8.114;2023-05-07T08:21:39;99956.00;;;20.01;63.61
75538;BME280;64121;48.666;8.114;2023-05-07T08:24:05;99957.97;;;20.63;62.36
75538;BME280;64121;48.666;8.114;2023-05-07T08:26:30;99958.00;;;21.01;61.03
75538;BME280;64121;48.666;8.114;2023-05-07T08:28:57;99966.28;;;21.18;59.96
75538;BME280;64121;48.666;8.114;2023-05-07T08:31:22;99964.97;;;20.51;63.00
75538;BME280;64121;48.666;8.114;2023-05-07T08:33:48;99970.31;;;20.35;62.89
75538;BME280;64121;48.666;8.114;2023-05-07T08:36:13;99972.94;;;21.05;60.37
75538;BME280;64121;48.666;8.114;2023-05-07T08:38:38;99976.16;;;21.44;60.39
75538;BME280;64121;48.666;8.114;2023-05-07T08:41:04;99979.44;;;22.00;56.36
75538;BME280;64121;48.666;8.114;2023-05-07T08:43:32;99985.75;;;22.15;57.43
75538;BME280;64121;48.666;8.114;2023-05-07T08:46:00;99971.88;;;21.29;59.48
75538;BME280;64121;48.666;8.114;2023-05-07T08:48:27;99975.97;;;20.83;60.68
75538;BME280;64121;48.666;8.114;2023-05-07T08:50:54;99971.56;;;20.82;61.20
75538;BME280;64121;48.666;8.114;2023-05-07T08:53:20;99974.91;;;21.45;59.56
75538;BME280;64121;48.666;8.114;2023-05-07T08:55:45;99976.84;;;20.21;63.11
75538;BME280;64121;48.666;8.114;2023-05-07T08:58:11;99972.69;;;20.40;62.34
75538;BME280;64121;48.666;8.114;2023-05-07T09:00:37;99967.78;;;20.93;63.29
75538;BME280;64121;48.666;8.114;2023-05-07T09:03:05;99968.28;;;21.59;59.80
75538;BME280;64121;48.666;8.114;2023-05-07T09:05:30;99967.34;;;21.35;60.27
75538;BME280;64121;48.666;8.114;2023-05-07T09:07:58;99972.13;;;22.03;58.24
75538;BME280;64121;48.666;8.114;2023-05-07T09:10:25;99975.16;;;22.19;56.66
75538;BME280;64121;48.666;8.114;2023-05-07T09:12:50;99966.69;;;21.21;58.76
75538;BME280;64121;48.666;8.114;2023-05-07T09:15:16;99961.19;;;21.06;59.72
75538;BME280;64121;48.666;8.114;2023-05-07T09:17:42;99958.94;;;21.62;58.71
75538;BME280;64121;48.666;8.114;2023-05-07T09:20:10;99964.06;;;21.71;58.27
75538;BME280;64121;48.666;8.114;2023-05-07T09:22:36;99958.38;;;21.06;61.07
75538;BME280;64121;48.666;8.114;2023-05-07T09:25:02;99951.97;;;21.36;59.71
75538;BME280;64121;48.666;8.114;2023-05-07T09:27:28;99955.59;;;21.98;58.94
75538;BME280;64121;48.666;8.114;2023-05-07T09:29:53;99953.88;;;22.31;58.82
75538;BME280;64121;48.666;8.114;2023-05-07T09:32:18;99957.91;;;23.04;56.75
75538;BME280;64121;48.666;8.114;2023-05-07T09:34:44;99965.16;;;23.28;55.03
75538;BME280;64121;48.666;8.114;2023-05-07T09:37:12;99951.69;;;23.12;55.09
75538;BME280;64121;48.666;8.114;2023-05-07T09:39:41;99953.34;;;22.90;54.40
75538;BME280;64121;48.666;8.114;2023-05-07T09:42:07;99962.91;;;23.59;54.85
75538;BME280;64121;48.666;8.114;2023-05-07T09:44:33;99964.72;;;22.86;55.65
75538;BME280;64121;48.666;8.114;2023-05-07T09:47:00;99955.22;;;22.73;57.00
75538;BME280;64121;48.666;8.114;2023-05-07T09:49:28;99966.06;;;23.65;52.24
75538;BME280;64121;48.666;8.114;2023-05-07T09:51:55;99963.81;;;23.92;52.96
75538;BME280;64121;48.666;8.114;2023-05-07T09:54:22;99961.47;;;22.88;54.17
75538;BME280;64121;48.666;8.114;2023-05-07T09:56:48;99961.75;;;23.56;53.73
75538;BME280;64121;48.666;8.114;2023-05-07T09:59:15;99967.31;;;24.00;52.77
75538;BME280;64121;48.666;8.114;2023-05-07T10:01:42;99960.22;;;23.72;53.33
75538;BME280;64121;48.666;8.114;2023-05-07T10:04:09;99963.09;;;23.88;52.67
75538;BME280;64121;48.666;8.114;2023-05-07T10:06:35;99958.09;;;24.28;52.40
75538;BME280;64121;48.666;8.114;2023-05-07T10:09:01;99957.53;;;24.17;52.65
75538;BME280;64121;48.666;8.114;2023-05-07T10:11:28;99956.53;;;24.60;51.16
75538;BME280;64121;48.666;8.114;2023-05-07T10:13:53;99962.22;;;24.43;51.11
75538;BME280;64121;48.666;8.114;2023-05-07T10:16:19;99953.53;;;23.98;53.19
75538;BME280;64121;48.666;8.114;2023-05-07T10:18:45;99954.19;;;24.22;52.64
75538;BME280;64121;48.666;8.114;2023-05-07T10:21:16;99953.66;;;23.75;52.94
75538;BME280;64121;48.666;8.114;2023-05-07T10:23:44;99951.91;;;24.66;51.94
75538;BME280;64121;48.666;8.114;2023-05-07T10:26:11;99950.75;;;23.95;52.05
75538;BME280;64121;48.666;8.114;2023-05-07T10:28:41;99941.84;;;22.97;55.12
75538;BME280;64121;48.666;8.114;2023-05-07T10:31:15;99938.81;;;23.27;55.34
75538;BME280;64121;48.666;8.114;2023-05-07T10:33:44;99939.00;;;23.76;53.64
75538;BME280;64121;48.666;8.114;2023-05-07T10:36:12;99938.09;;;23.79;55.45
75538;BME280;64121;48.666;8.114;2023-05-07T10:38:37;99941.56;;;24.23;51.53
75538;BME280;64121;48.666;8.114;2023-05-07T10:41:03;99940.78;;;24.71;51.07
75538;BME280;64121;48.666;8.114;2023-05-07T10:43:39;99948.34;;;25.23;50.37
75538;BME280;64121;48.666;8.114;2023-05-07T10:46:10;99942.63;;;25.11;50.72
75538;BME280;64121;48.666;8.114;2023-05-07T10:49:07;99952.44;;;25.51;48.41
75538;BME280;64121;48.666;8.114;2023-05-07T10:51:34;99941.63;;;24.39;52.27
75538;BME280;64121;48.666;8.114;2023-05-07T10:54:21;99938.78;;;24.39;51.26
75538;BME280;64121;48.666;8.114;2023-05-07T10:56:47;99932.91;;;23.94;53.95
75538;BME280;64121;48.666;8.114;2023-05-07T10:59:33;99939.16;;;23.49;53.73
75538;BME280;64121;48.666;8.114;2023-05-07T11:02:00;99941.47;;;24.27;51.88
75538;BME280;64121;48.666;8.114;2023-05-07T11:04:25;99939.34;;;23.62;53.28
75538;BME280;64121;48.666;8.114;2023-05-07T11:07:21;99931.41;;;24.87;50.66
75538;BME280;64121;48.666;8.114;2023-05-07T11:10:02;99936.47;;;24.96;50.91
75538;BME280;64121;48.666;8.114;2023-05-07T11:12:47;99946.00;;;24.89;50.54
75538;BME280;64121;48.666;8.114;2023-05-07T11:15:15;99946.47;;;25.33;48.73
75538;BME280;64121;48.666;8.114;2023-05-07T11:17:58;99950.56;;;25.45;47.90
75538;BME280;64121;48.666;8.114;2023-05-07T11:20:49;99956.94;;;25.78;48.16
75538;BME280;64121;48.666;8.114;2023-05-07T11:23:57;99953.69;;;25.63;50.14
75538;BME280;64121;48.666;8.114;2023-05-07T11:26:23;99954.25;;;26.12;47.03
75538;BME280;64121;48.666;8.114;2023-05-07T11:28:48;99954.09;;;24.91;50.53
75538;BME280;64121;48.666;8.114;2023-05-07T11:31:20;99952.19;;;23.86;50.98
75538;BME280;64121;48.666;8.114;2023-05-07T11:33:46;99959.28;;;24.63;49.97
75538;BME280;64121;48.666;8.114;2023-05-07T11:36:12;99960.63;;;24.75;50.65
75538;BME280;64121;48.666;8.114;2023-05-07T11:38:38;99959.22;;;25.41;48.56
75538;BME280;64121;48.666;8.114;2023-05-07T11:41:03;99953.81;;;25.59;47.98
75538;BME280;64121;48.666;8.114;2023-05-07T11:43:29;99953.69;;;25.63;47.90
75538;BME280;64121;48.666;8.114;2023-05-07T11:45:54;99961.78;;;25.64;47.91
75538;BME280;64121;48.666;8.114;2023-05-07T11:48:21;99959.16;;;25.86;48.14
75538;BME280;64121;48.666;8.114;2023-05-07T11:50:51;99960.06;;;25.54;47.47
75538;BME280;64121;48.666;8.114;2023-05-07T11:53:16;99969.88;;;25.24;48.20
75538;BME280;64121;48.666;8.114;2023-05-07T11:55:41;99969.69;;;25.31;47.14
75538;BME280;64121;48.666;8.114;2023-05-07T11:58:10;99969.38;;;25.71;47.28
75538;BME280;64121;48.666;8.114;2023-05-07T12:00:35;99965.84;;;25.38;47.18
75538;BME280;64121;48.666;8.114;2023-05-07T12:03:03;99969.38;;;25.42;46.23
75538;BME280;64121;48.666;8.114;2023-05-07T12:05:30;99971.88;;;25.40;47.34
75538;BME280;64121;48.666;8.114;2023-05-07T12:07:56;99966.88;;;25.15;46.79
75538;BME280;64121;48.666;8.114;2023-05-07T12:10:21;99961.19;;;25.15;47.60
75538;BME280;64121;48.666;8.114;2023-05-07T12:12:47;99970.44;;;25.19;47.52
75538;BME280;64121;48.666;8.114;2023-05-07T12:15:15;99979.22;;;25.25;46.37
75538;BME280;64121;48.666;8.114;2023-05-07T12:17:41;99975.63;;;24.92;47.92
75538;BME280;64121;48.666;8.114;2023-05-07T12:20:07;99973.78;;;25.01;48.86
75538;BME280;64121;48.666;8.114;2023-05-07T12:22:34;99968.81;;;24.73;48.23
75538;BME280;64121;48.666;8.114;2023-05-07T12:25:00;99968.28;;;24.45;50.02
75538;BME280;64121;48.666;8.114;2023-05-07T12:27:26;99971.38;;;24.51;49.65
75538;BME280;64121;48.666;8.114;2023-05-07T12:29:51;99969.53;;;24.61;49.68
75538;BME280;64121;48.666;8.114;2023-05-07T12:32:18;99967.03;;;24.63;49.30
75538;BME280;64121;48.666;8.114;2023-05-07T12:34:44;99974.31;;;24.31;50.02
75538;BME280;64121;48.666;8.114;2023-05-07T12:37:10;99982.06;;;24.47;48.61
75538;BME280;64121;48.666;8.114;2023-05-07T12:39:37;99989.78;;;24.63;48.39
75538;BME280;64121;48.666;8.114;2023-05-07T12:42:02;99976.56;;;24.56;49.88
75538;BME280;64121;48.666;8.114;2023-05-07T12:44:29;99985.03;;;24.24;47.87
75538;BME280;64121;48.666;8.114;2023-05-07T12:46:55;99979.88;;;24.19;48.69
75538;BME280;64121;48.666;8.114;2023-05-07T12:49:20;99985.03;;;23.88;50.13
75538;BME280;64121;48.666;8.114;2023-05-07T12:51:46;99989.13;;;24.23;50.15
75538;BME280;64121;48.666;8.114;2023-05-07T12:54:12;99981.53;;;24.16;49.61
75538;BME280;64121;48.666;8.114;2023-05-07T12:56:39;99982.75;;;24.51;49.29